createdAt,value
2017-08-24T00:00:33.911Z,78.50
2017-08-24T00:03:01.457Z,78.70
2017-08-24T00:05:28.911Z,78.70
2017-08-24T00:07:56.349Z,78.70
2017-08-24T00:10:23.821Z,78.80
2017-08-24T00:12:51.276Z,79.50
2017-08-24T00:15:19.641Z,79.20
2017-08-24T00:17:47.113Z,78.50
2017-08-24T00:20:14.581Z,78.00
2017-08-24T00:22:42.028Z,78.40
2017-08-24T00:25:09.466Z,79.00
2017-08-24T00:27:36.928Z,79.10
2017-08-24T00:30:04.364Z,79.40
2017-08-24T00:32:31.838Z,79.70
2017-08-24T00:34:59.286Z,80.20
2017-08-24T00:37:26.712Z,80.10
2017-08-24T00:39:54.213Z,80.00
2017-08-24T00:42:21.669Z,81.00
2017-08-24T00:44:50.884Z,81.30
2017-08-24T00:47:18.437Z,81.20
2017-08-24T00:49:45.903Z,81.50
2017-08-24T00:52:13.329Z,81.60
2017-08-24T00:54:40.799Z,81.90
2017-08-24T00:57:08.272Z,82.20
2017-08-24T00:59:35.722Z,82.70
2017-08-24T01:02:03.180Z,82.70
2017-08-24T01:04:30.666Z,82.30
2017-08-24T01:06:58.096Z,82.50
2017-08-24T01:09:25.554Z,82.50
2017-08-24T01:11:53.337Z,82.30
2017-08-24T01:14:20.816Z,82.20
2017-08-24T01:16:48.252Z,82.30
2017-08-24T01:19:15.891Z,83.00
2017-08-24T01:21:43.440Z,82.50
2017-08-24T01:24:10.946Z,82.20
2017-08-24T01:26:38.392Z,82.40
2017-08-24T01:29:05.852Z,82.70
2017-08-24T01:31:33.317Z,83.00
2017-08-24T01:34:00.783Z,82.80
2017-08-24T01:36:28.227Z,82.10
2017-08-24T01:38:55.677Z,81.60
2017-08-24T01:41:23.143Z,81.00
2017-08-24T01:43:50.888Z,80.60
2017-08-24T01:46:24.195Z,80.00
2017-08-24T01:48:51.664Z,79.10
2017-08-24T01:51:19.120Z,78.90
2017-08-24T01:53:46.601Z,78.70
2017-08-24T01:56:14.045Z,78.40
2017-08-24T01:58:41.492Z,78.20
2017-08-24T02:01:08.952Z,78.00
2017-08-24T02:03:36.381Z,77.90
2017-08-24T02:06:03.861Z,77.90
2017-08-24T02:08:31.294Z,77.80
2017-08-24T02:10:58.728Z,78.00
2017-08-24T02:13:26.197Z,78.40
2017-08-24T02:15:53.634Z,79.30
2017-08-24T02:18:21.093Z,79.70
2017-08-24T02:20:48.553Z,80.00
2017-08-24T02:23:16.007Z,79.90
2017-08-24T02:25:43.448Z,79.60
2017-08-24T02:28:10.886Z,79.40
2017-08-24T02:30:38.366Z,79.00
2017-08-24T02:33:05.977Z,78.90
2017-08-24T02:35:33.438Z,79.10
2017-08-24T02:38:01.689Z,79.90
2017-08-24T02:40:29.135Z,80.50
2017-08-24T02:42:56.580Z,80.20
2017-08-24T02:45:24.036Z,80.90
2017-08-24T02:47:51.489Z,81.10
2017-08-24T02:50:18.936Z,81.50
2017-08-24T02:52:46.412Z,81.30
2017-08-24T02:55:13.844Z,81.30
2017-08-24T02:57:41.275Z,81.60
2017-08-24T03:00:08.974Z,81.80
2017-08-24T03:02:36.434Z,81.90
2017-08-24T03:05:04.068Z,82.10
2017-08-24T03:07:31.521Z,82.30
2017-08-24T03:09:59.012Z,82.60
2017-08-24T03:12:26.453Z,82.70
2017-08-24T03:14:53.900Z,83.00
2017-08-24T03:17:21.812Z,83.00
2017-08-24T03:19:49.288Z,83.10
2017-08-24T03:22:16.707Z,83.40
2017-08-24T03:24:44.362Z,83.20
2017-08-24T03:27:11.800Z,83.20
2017-08-24T03:29:39.257Z,83.50
2017-08-24T03:32:06.812Z,83.70
2017-08-24T03:34:34.250Z,84.00
2017-08-24T03:37:01.743Z,84.10
2017-08-24T03:39:30.285Z,84.20
2017-08-24T03:41:57.721Z,84.40
2017-08-24T03:44:25.646Z,84.50
2017-08-24T03:46:53.077Z,84.50
2017-08-24T03:49:20.537Z,84.40
2017-08-24T03:51:47.993Z,84.80
2017-08-24T03:54:15.459Z,84.70
2017-08-24T03:56:42.893Z,84.90
2017-08-24T03:59:10.357Z,84.80
2017-08-24T04:01:37.803Z,84.80
2017-08-24T04:04:05.537Z,85.00
2017-08-24T04:06:33.000Z,85.30
2017-08-24T04:09:00.445Z,85.40
2017-08-24T04:11:27.906Z,85.60
2017-08-24T04:13:55.349Z,85.90
2017-08-24T04:16:22.796Z,86.00
2017-08-24T04:18:50.265Z,86.30
2017-08-24T04:21:17.699Z,86.50
2017-08-24T04:23:45.160Z,86.30
2017-08-24T04:26:12.665Z,86.20
2017-08-24T04:28:40.124Z,85.70
2017-08-24T04:31:07.596Z,85.50
2017-08-24T04:33:35.058Z,85.00
2017-08-24T04:36:02.488Z,84.80
2017-08-24T04:38:29.972Z,84.70
2017-08-24T04:40:57.460Z,84.70
2017-08-24T04:43:24.912Z,84.30
2017-08-24T04:45:53.146Z,83.40
2017-08-24T04:48:20.633Z,82.50
2017-08-24T04:50:48.145Z,82.50
2017-08-24T04:53:15.625Z,81.20
2017-08-24T04:55:43.280Z,80.50
2017-08-24T04:58:10.738Z,78.10
2017-08-24T05:00:38.173Z,77.60
2017-08-24T05:03:05.644Z,76.50
2017-08-24T05:05:33.096Z,77.90
2017-08-24T05:08:00.573Z,76.10
2017-08-24T05:10:28.063Z,76.90
2017-08-24T05:12:55.594Z,76.30
2017-08-24T05:15:23.728Z,76.00
2017-08-24T05:17:51.188Z,76.40
2017-08-24T05:20:18.668Z,76.00
2017-08-24T05:22:46.113Z,76.10
2017-08-24T05:25:13.596Z,76.20
2017-08-24T05:27:41.081Z,75.90
2017-08-24T05:30:09.394Z,75.60
2017-08-24T05:32:36.842Z,75.10
2017-08-24T05:35:04.288Z,75.80
2017-08-24T05:37:31.743Z,76.10
2017-08-24T05:39:59.199Z,76.40
2017-08-24T05:42:26.638Z,75.00
2017-08-24T05:50:07.863Z,74.30
2017-08-24T05:52:35.300Z,73.50
2017-08-24T05:55:02.947Z,73.60
2017-08-24T05:57:30.600Z,73.60
2017-08-24T05:59:58.097Z,74.00
2017-08-24T06:02:25.561Z,73.80
2017-08-24T06:04:53.385Z,72.20
2017-08-24T06:07:20.866Z,73.80
2017-08-24T06:09:48.667Z,73.20
2017-08-24T06:12:16.262Z,73.10
2017-08-24T06:14:43.686Z,72.30
2017-08-24T06:17:11.921Z,70.60
2017-08-24T06:19:39.360Z,70.60
2017-08-24T06:22:06.827Z,70.20
2017-08-24T06:24:34.289Z,71.80
2017-08-24T06:27:01.713Z,70.40
2017-08-24T06:29:29.168Z,70.60
2017-08-24T06:31:56.657Z,70.10
2017-08-24T06:34:25.057Z,69.90
2017-08-24T06:36:52.772Z,69.90
2017-08-24T06:39:20.238Z,69.60
2017-08-24T06:41:47.726Z,70.60
2017-08-24T06:44:15.168Z,70.50
2017-08-24T06:46:42.634Z,70.20
2017-08-24T06:49:10.071Z,68.90
2017-08-24T06:51:37.514Z,69.10
2017-08-24T06:54:04.978Z,70.80
2017-08-24T06:56:32.443Z,70.60
2017-08-24T06:58:59.931Z,68.30
2017-08-24T07:01:27.424Z,68.50
2017-08-24T07:03:55.483Z,69.60
2017-08-24T07:06:22.972Z,70.20
2017-08-24T07:08:50.424Z,70.10
2017-08-24T07:11:17.881Z,69.50
2017-08-24T07:13:45.380Z,69.30
2017-08-24T07:16:13.057Z,69.90
2017-08-24T07:18:40.496Z,69.80
2017-08-24T07:21:08.713Z,68.60
2017-08-24T07:23:36.179Z,68.50
2017-08-24T07:26:03.833Z,69.10
2017-08-24T07:28:32.929Z,69.80
2017-08-24T07:31:01.616Z,67.50
2017-08-24T07:33:29.540Z,69.10
2017-08-24T07:35:56.964Z,69.20
2017-08-24T07:38:24.452Z,68.20
2017-08-24T07:40:51.930Z,68.10
2017-08-24T07:43:19.410Z,67.70
2017-08-24T07:45:46.868Z,66.40
2017-08-24T07:48:14.344Z,66.90
2017-08-24T07:50:41.796Z,66.90
2017-08-24T07:53:09.247Z,67.00
2017-08-24T07:55:36.688Z,66.30
2017-08-24T07:58:04.164Z,67.50
2017-08-24T08:00:31.631Z,67.80
2017-08-24T08:02:59.066Z,68.10
2017-08-24T08:05:27.297Z,67.70
2017-08-24T08:07:54.749Z,68.30
2017-08-24T08:10:22.977Z,67.90
2017-08-24T08:12:50.441Z,67.80
2017-08-24T08:15:17.910Z,67.70
2017-08-24T08:17:45.362Z,68.00
2017-08-24T08:20:12.844Z,67.30
2017-08-24T08:22:40.336Z,66.70
2017-08-24T08:25:07.773Z,67.00
2017-08-24T08:27:35.271Z,66.30
2017-08-24T08:30:02.688Z,65.70
2017-08-24T08:32:30.146Z,66.00
2017-08-24T08:34:57.589Z,66.50
2017-08-24T08:37:25.050Z,66.40
2017-08-24T08:39:52.509Z,67.20
2017-08-24T08:42:19.949Z,67.40
2017-08-24T08:44:47.437Z,67.50
2017-08-24T08:47:14.865Z,65.30
2017-08-24T08:49:42.326Z,65.30
2017-08-24T08:52:09.801Z,67.20
2017-08-24T08:54:37.247Z,67.00
2017-08-24T08:57:04.689Z,68.20
2017-08-24T08:59:32.138Z,67.90
2017-08-24T09:01:59.583Z,67.50
2017-08-24T09:04:27.602Z,67.40
2017-08-24T09:06:55.091Z,67.80
2017-08-24T09:09:22.868Z,68.00
2017-08-24T09:11:50.323Z,68.30
2017-08-24T09:14:17.801Z,68.40
2017-08-24T09:16:45.249Z,68.10
2017-08-24T09:19:12.684Z,67.10
2017-08-24T09:21:40.194Z,66.70
2017-08-24T09:24:07.624Z,65.20
2017-08-24T09:26:35.078Z,64.00
2017-08-24T09:29:02.562Z,63.60
2017-08-24T09:31:30.070Z,62.50
2017-08-24T09:33:58.001Z,60.80
2017-08-24T09:36:26.290Z,59.90
2017-08-24T09:38:53.909Z,59.80
2017-08-24T09:41:21.370Z,58.70
2017-08-24T09:43:48.864Z,56.80
2017-08-24T09:46:16.292Z,55.90
2017-08-24T09:48:43.728Z,56.10
2017-08-24T09:51:11.180Z,55.90
2017-08-24T09:53:38.970Z,56.00
2017-08-24T09:56:06.424Z,56.30
2017-08-24T09:58:33.876Z,55.50
2017-08-24T10:01:01.348Z,54.90
2017-08-24T10:06:26.985Z,54.70
2017-08-24T10:08:54.428Z,52.70
2017-08-24T10:11:21.905Z,51.70
2017-08-24T10:13:49.365Z,50.90
2017-08-24T10:16:16.826Z,51.00
2017-08-24T10:18:44.285Z,50.80
2017-08-24T10:21:11.713Z,51.20
2017-08-24T10:23:39.186Z,51.30
2017-08-24T10:26:06.654Z,51.40
2017-08-24T10:28:34.148Z,52.20
2017-08-24T10:31:01.566Z,51.40
2017-08-24T10:33:29.169Z,52.20
2017-08-24T10:35:56.621Z,50.00
2017-08-24T10:38:24.076Z,49.30
2017-08-24T10:40:51.493Z,49.60
2017-08-24T10:43:18.936Z,48.30
2017-08-24T10:45:46.384Z,47.70
2017-08-24T10:48:13.813Z,46.30
2017-08-24T10:50:41.276Z,45.80
2017-08-24T10:53:09.506Z,46.80
2017-08-24T10:55:36.952Z,47.30
2017-08-24T10:58:05.271Z,48.60
2017-08-24T11:00:33.507Z,48.60
2017-08-24T11:03:00.982Z,48.60
2017-08-24T11:05:28.409Z,49.10
2017-08-24T11:07:55.853Z,48.30
2017-08-24T11:10:23.359Z,48.40
2017-08-24T11:12:50.816Z,48.10
2017-08-24T11:15:18.248Z,47.80
2017-08-24T11:17:45.675Z,48.90
2017-08-24T11:20:13.136Z,47.80
2017-08-24T11:22:40.640Z,49.60
2017-08-24T11:25:08.142Z,50.50
2017-08-24T11:27:35.594Z,50.40
2017-08-24T11:30:03.064Z,49.60
2017-08-24T11:32:30.728Z,50.10
2017-08-24T11:34:58.193Z,50.30
2017-08-24T11:37:25.641Z,51.70
2017-08-24T11:39:53.099Z,50.90
2017-08-24T11:42:20.540Z,51.10
2017-08-24T11:44:48.030Z,51.00
2017-08-24T11:47:17.588Z,50.40
2017-08-24T11:49:45.055Z,51.20
2017-08-24T11:52:12.496Z,51.40
2017-08-24T11:54:39.956Z,51.20
2017-08-24T11:57:07.393Z,50.40
2017-08-24T11:59:34.822Z,50.80
2017-08-24T12:02:02.313Z,49.70
2017-08-24T12:04:29.765Z,50.10
2017-08-24T12:06:57.649Z,49.10
2017-08-24T12:09:25.116Z,48.70
2017-08-24T12:11:52.566Z,48.40
2017-08-24T12:14:20.107Z,47.80
2017-08-24T12:16:47.576Z,49.00
2017-08-24T12:19:15.040Z,49.90
2017-08-24T12:21:42.659Z,50.10
2017-08-24T12:24:10.145Z,49.40
2017-08-24T12:26:37.616Z,49.80
2017-08-24T12:29:05.134Z,49.70
2017-08-24T12:31:32.596Z,50.20
2017-08-24T12:34:00.063Z,50.80
2017-08-24T12:36:27.505Z,50.70
2017-08-24T12:38:55.038Z,50.90
2017-08-24T12:41:22.457Z,51.00
2017-08-24T12:43:49.901Z,51.20
2017-08-24T12:46:17.348Z,51.70
2017-08-24T12:48:44.794Z,52.00
2017-08-24T12:51:12.271Z,51.90
2017-08-24T12:53:39.700Z,51.30
2017-08-24T12:56:07.361Z,51.50
2017-08-24T12:58:34.884Z,52.10
2017-08-24T13:01:02.341Z,51.70
2017-08-24T13:03:29.793Z,52.30
2017-08-24T13:05:57.474Z,51.90
2017-08-24T13:08:24.924Z,52.20
2017-08-24T13:10:52.366Z,52.50
2017-08-24T13:13:19.871Z,52.70
2017-08-24T13:15:47.336Z,51.40
2017-08-24T13:18:15.031Z,52.90
2017-08-24T13:20:42.456Z,52.20
2017-08-24T13:23:09.925Z,52.20
2017-08-24T13:25:37.392Z,51.60
2017-08-24T13:28:04.971Z,52.10
2017-08-24T13:30:33.087Z,51.90
2017-08-24T13:33:00.540Z,51.60
2017-08-24T13:35:27.992Z,52.50
2017-08-24T13:37:55.452Z,52.90
2017-08-24T13:40:22.884Z,51.40
2017-08-24T13:42:50.324Z,51.30
2017-08-24T13:45:17.789Z,51.00
2017-08-24T13:47:45.243Z,50.40
2017-08-24T13:50:12.698Z,50.60
2017-08-24T13:52:40.151Z,50.80
2017-08-24T13:55:07.689Z,50.70
2017-08-24T13:57:35.163Z,51.00
2017-08-24T14:00:02.594Z,51.20
2017-08-24T14:02:30.069Z,51.00
2017-08-24T14:04:57.531Z,50.40
2017-08-24T14:07:24.981Z,48.70
2017-08-24T14:09:52.642Z,48.10
2017-08-24T14:12:20.096Z,46.70
2017-08-24T14:14:47.632Z,48.30
2017-08-24T14:17:15.085Z,48.50
2017-08-24T14:19:42.562Z,48.60
2017-08-24T14:22:10.290Z,48.90
2017-08-24T14:24:37.726Z,48.30
2017-08-24T14:27:05.158Z,48.10
2017-08-24T14:29:32.603Z,47.80
2017-08-24T14:32:00.050Z,48.40
2017-08-24T14:34:27.500Z,45.70
2017-08-24T14:36:55.013Z,45.70
2017-08-24T14:39:22.472Z,45.00
2017-08-24T14:41:49.913Z,44.90
2017-08-24T14:44:20.289Z,44.60
2017-08-24T14:46:47.728Z,43.30
2017-08-24T14:49:15.184Z,43.60
2017-08-24T14:51:42.629Z,43.00
2017-08-24T14:54:10.089Z,42.90
2017-08-24T14:56:37.548Z,43.10
2017-08-24T14:59:05.333Z,43.60
2017-08-24T15:01:32.810Z,43.30
2017-08-24T15:04:00.460Z,45.40
2017-08-24T15:06:27.915Z,44.40
2017-08-24T15:08:55.347Z,43.20
2017-08-24T15:11:22.823Z,43.50
2017-08-24T15:13:50.275Z,43.20
2017-08-24T15:16:18.611Z,43.60
2017-08-24T15:18:46.057Z,43.50
2017-08-24T15:21:13.494Z,43.50
2017-08-24T15:23:40.962Z,44.50
2017-08-24T15:26:08.401Z,44.20
2017-08-24T15:28:35.859Z,44.70
2017-08-24T15:31:03.474Z,45.00
2017-08-24T15:33:30.923Z,45.30
2017-08-24T15:35:58.394Z,44.90
2017-08-24T15:38:25.858Z,44.30
2017-08-24T15:40:53.302Z,43.90
2017-08-24T15:43:20.790Z,43.90
2017-08-24T15:45:48.240Z,42.80
2017-08-24T15:48:15.677Z,42.50
2017-08-24T15:50:43.116Z,41.50
2017-08-24T15:53:10.580Z,40.00
2017-08-24T15:55:40.864Z,40.30
2017-08-24T15:58:08.322Z,41.20
2017-08-24T16:00:36.710Z,40.40
2017-08-24T16:03:04.154Z,40.80
2017-08-24T16:05:31.649Z,41.30
2017-08-24T16:07:59.850Z,42.60
2017-08-24T16:10:27.308Z,42.60
2017-08-24T16:12:54.745Z,43.30
2017-08-24T16:15:22.208Z,43.60
2017-08-24T16:17:49.693Z,43.50
2017-08-24T16:20:17.121Z,42.50
2017-08-24T16:22:44.589Z,42.90
2017-08-24T16:25:12.045Z,43.00
2017-08-24T16:27:39.506Z,43.50
2017-08-24T16:30:08.545Z,43.50
2017-08-24T16:32:35.987Z,43.50
2017-08-24T16:35:03.463Z,44.00
2017-08-24T16:37:30.941Z,44.70
2017-08-24T16:39:58.417Z,44.50
2017-08-24T16:42:27.595Z,45.20
2017-08-24T16:44:55.098Z,44.00
2017-08-24T16:47:22.548Z,41.60
2017-08-24T16:49:49.994Z,39.90
2017-08-24T16:52:17.444Z,38.50
2017-08-24T16:54:44.887Z,38.90
2017-08-24T16:57:12.336Z,38.70
2017-08-24T16:59:39.769Z,38.00
2017-08-24T17:02:08.172Z,39.50
2017-08-24T17:04:35.616Z,41.20
2017-08-24T17:07:03.057Z,43.10
2017-08-24T17:09:30.735Z,44.00
2017-08-24T17:11:58.161Z,45.40
2017-08-24T17:14:25.620Z,46.20
2017-08-24T17:16:53.065Z,47.40
2017-08-24T17:19:20.792Z,46.80
2017-08-24T17:21:48.255Z,46.60
2017-08-24T17:24:15.731Z,47.20
2017-08-24T17:26:43.161Z,47.50
2017-08-24T17:29:10.645Z,47.80
2017-08-24T17:31:39.800Z,48.70
2017-08-24T17:34:07.245Z,48.70
2017-08-24T17:36:34.686Z,48.40
2017-08-24T17:39:02.164Z,47.10
2017-08-24T17:41:29.633Z,46.60
2017-08-24T17:43:57.110Z,47.30
2017-08-24T17:46:24.553Z,47.60
2017-08-24T17:48:52.008Z,47.70
2017-08-24T17:51:19.694Z,48.50
2017-08-24T17:53:47.162Z,49.20
2017-08-24T17:56:14.688Z,50.10
2017-08-24T17:58:42.170Z,49.20
2017-08-24T18:01:09.970Z,49.70
2017-08-24T18:03:38.192Z,49.40
2017-08-24T18:06:05.959Z,49.40
2017-08-24T18:08:33.395Z,50.00
2017-08-24T18:11:00.900Z,50.60
2017-08-24T18:13:29.345Z,50.10
2017-08-24T18:15:56.918Z,52.00
2017-08-24T18:18:24.685Z,50.20
2017-08-24T18:20:52.122Z,50.60
2017-08-24T18:23:19.593Z,51.00
2017-08-24T18:25:47.066Z,51.30
2017-08-24T18:28:14.500Z,52.00
2017-08-24T18:30:41.975Z,52.90
2017-08-24T18:33:09.405Z,53.20
2017-08-24T18:35:36.892Z,53.60
2017-08-24T18:38:05.113Z,56.60
2017-08-24T18:40:32.561Z,56.50
2017-08-24T18:43:00.792Z,56.40
2017-08-24T18:45:28.288Z,56.30
2017-08-24T18:47:57.743Z,57.20
2017-08-24T18:50:25.177Z,57.20
2017-08-24T18:52:52.614Z,57.70
2017-08-24T18:55:20.850Z,60.40
2017-08-24T18:57:48.298Z,60.30
2017-08-24T19:00:15.789Z,60.00
2017-08-24T19:02:43.274Z,59.20
2017-08-24T19:05:10.726Z,59.10
2017-08-24T19:07:38.225Z,60.80
2017-08-24T19:10:06.496Z,61.20
2017-08-24T19:12:33.944Z,61.30
2017-08-24T19:15:02.237Z,61.80
2017-08-24T19:17:29.681Z,62.70
2017-08-24T19:19:57.133Z,64.50
2017-08-24T19:22:24.605Z,65.20
2017-08-24T19:24:52.046Z,66.00
2017-08-24T19:27:19.505Z,66.30
2017-08-24T19:29:46.986Z,67.20
2017-08-24T19:32:14.456Z,67.40
2017-08-24T19:34:42.726Z,67.80
2017-08-24T19:37:10.212Z,68.50
2017-08-24T19:39:37.864Z,68.60
2017-08-24T19:42:05.312Z,68.20
2017-08-24T19:44:32.776Z,69.20
2017-08-24T19:47:00.253Z,69.50
2017-08-24T19:49:27.753Z,70.80
2017-08-24T19:51:55.210Z,70.40
2017-08-24T19:54:22.671Z,70.70
2017-08-24T19:56:50.178Z,71.00
2017-08-24T19:59:17.811Z,71.40
2017-08-24T20:01:45.293Z,71.90
2017-08-24T20:04:13.427Z,72.20
2017-08-24T20:06:40.875Z,72.50
2017-08-24T20:09:08.369Z,72.90
2017-08-24T20:11:36.012Z,72.20
2017-08-24T20:14:03.535Z,71.80
2017-08-24T20:16:30.985Z,73.00
2017-08-24T20:18:58.452Z,73.20
2017-08-24T20:21:25.909Z,73.70
2017-08-24T20:23:53.580Z,74.20
2017-08-24T20:26:21.097Z,73.90
2017-08-24T20:28:48.538Z,73.90
2017-08-24T20:31:16.006Z,73.90
2017-08-24T20:33:44.244Z,73.00
2017-08-24T20:36:11.688Z,72.90
2017-08-24T20:38:39.113Z,73.10
2017-08-24T20:41:06.780Z,74.40
2017-08-24T20:43:34.416Z,73.70
2017-08-24T20:46:01.841Z,73.10
2017-08-24T20:48:29.311Z,73.40
2017-08-24T20:50:56.809Z,73.40
2017-08-24T20:53:24.258Z,73.90
2017-08-24T20:55:51.691Z,74.50
2017-08-24T20:58:19.278Z,74.50
2017-08-24T21:00:46.704Z,74.80
2017-08-24T21:03:15.093Z,74.90
2017-08-24T21:05:42.541Z,74.70
2017-08-24T21:08:10.049Z,74.40
2017-08-24T21:10:37.505Z,74.40
2017-08-24T21:13:04.941Z,74.20
2017-08-24T21:15:32.390Z,74.50
2017-08-24T21:17:59.870Z,73.50
2017-08-24T21:20:27.334Z,74.40
2017-08-24T21:22:55.016Z,74.50
2017-08-24T21:25:22.478Z,74.80
2017-08-24T21:27:49.954Z,76.00
2017-08-24T21:30:17.451Z,75.10
2017-08-24T21:32:45.837Z,75.60
2017-08-24T21:35:13.306Z,76.30
2017-08-24T21:37:40.751Z,76.00
2017-08-24T21:40:08.205Z,75.90
2017-08-24T21:42:35.723Z,76.50
2017-08-24T21:45:03.163Z,76.70
2017-08-24T21:47:30.613Z,77.30
2017-08-24T21:49:58.061Z,78.50
2017-08-24T21:52:25.526Z,76.90
2017-08-24T21:54:52.962Z,76.30
2017-08-24T21:57:20.438Z,76.60
2017-08-24T21:59:48.810Z,76.50
2017-08-24T22:02:16.614Z,76.50
2017-08-24T22:04:44.045Z,77.80
2017-08-24T22:07:11.805Z,77.60
2017-08-24T22:09:39.277Z,78.30
2017-08-24T22:12:06.728Z,78.30
2017-08-24T22:14:35.089Z,78.90
2017-08-24T22:17:02.544Z,79.40
2017-08-24T22:19:30.011Z,79.60
2017-08-24T22:21:57.470Z,78.70
2017-08-24T22:24:24.953Z,78.30
2017-08-24T22:26:52.388Z,78.20
2017-08-24T22:29:19.839Z,78.50
2017-08-24T22:31:47.291Z,78.10
2017-08-24T22:34:14.753Z,78.00
2017-08-24T22:36:42.397Z,77.60
2017-08-24T22:39:09.858Z,77.30
2017-08-24T22:41:37.313Z,76.80
2017-08-24T22:44:04.751Z,77.00
2017-08-24T22:46:32.384Z,78.00
2017-08-24T22:48:59.814Z,78.10
2017-08-24T22:51:27.272Z,78.50
2017-08-24T22:54:00.298Z,78.80
2017-08-24T22:56:33.487Z,79.30
2017-08-24T22:59:06.645Z,79.40
2017-08-24T23:04:35.772Z,79.50
2017-08-24T23:07:03.225Z,79.90
2017-08-24T23:09:30.682Z,79.50
2017-08-24T23:11:58.123Z,79.40
2017-08-24T23:14:25.585Z,79.10
2017-08-24T23:16:53.036Z,79.30
2017-08-24T23:19:20.465Z,79.50
2017-08-24T23:21:48.088Z,79.30
2017-08-24T23:24:15.544Z,79.30
2017-08-24T23:26:43.123Z,79.50
2017-08-24T23:29:11.313Z,80.50
2017-08-24T23:31:38.781Z,80.40
2017-08-24T23:34:06.258Z,80.80
2017-08-24T23:36:33.705Z,80.70
2017-08-24T23:39:01.175Z,80.80
2017-08-24T23:41:28.645Z,80.60
2017-08-24T23:43:56.113Z,80.10
2017-08-24T23:46:23.568Z,80.00
2017-08-24T23:48:51.021Z,80.10
2017-08-24T23:51:19.361Z,80.80
2017-08-24T23:53:46.849Z,80.10
2017-08-24T23:56:14.317Z,80.30
2017-08-24T23:58:41.760Z,80.30
